Aérodrome :
LOGIN :

S'inscrire | Disclaimer

   EN    FR    IT 

 










Légende :    VFR   VFR Marginal   IFR   IFR Intensif   IFR Très Intensif
Visi : 
Plafond : 
>= 8 km
>= 3000ft
5 à 8 km
1000 à 3000 ft
1500m à 5 km
500 à 1000 ft
800 à 1500m
200 à 500 ft
< 800m
< 200 ft
Symboles :   Orages  Brouillard  Fortes neiges  Fortes précipitations  Vent > 20 kt
SIGMETs :   Divers  Orages  Givrage  Turbulence  Onde Orograph.  Cendres Volcan.







- Altitude de l'aérodrome : 24 ft
- Code IATA : IBZ


LEIB - Ibiza

DERNIER METAR :
  • 260130Z 28008KT 250V320 CAVOK 16/05 Q1018 NOSIG

METARs EXPIRÉS :
  • 260100Z 28012G25KT 200V320 CAVOK 17/05 Q1018 NOSIG
  • 260030Z 28014G27KT CAVOK 17/04 Q1018 NOSIG
  • 260000Z 29016G29KT 250V320 CAVOK 17/04 Q1018 NOSIG
  • 252330Z 28015G27KT CAVOK 18/03 Q1017 NOSIG
  • 252300Z 27016KT 240V300 CAVOK 18/06 Q1017 NOSIG

TAF TAF LEIB
Valide du 25 à 21h jusqu'au 26 à 21h UTC


252000Z 2521/2621 29010KT 9999 FEW020 TX18/2612Z TN11/2606Z
BECMG 2612/2614 22006KT
Pas de NOTAMs connus pour ce terrain.



MET'MAP, la Météo Aéronautique d'un coup d'oeil ! - Copyright ORBIFLY Décembre 2007 - Disclaimer

ORBIFLY MET'MAP TEAM :

Programmation & Développement : Alexandra Zaïnal
Conception & Développement : Baudouin d'Aumeries
Co-Programmation & Développement : Marc-Olivier Méhu
Soutien technique & logistique : Manuel Goepfert

Contact : metmap@orbifly.com




SOURCES & CREDITS :

   NOAA